createdAt,value
2019-02-06T00:01:14.027Z,1.50
2019-02-06T00:03:42.583Z,1.37
2019-02-06T00:06:11.175Z,1.27
2019-02-06T00:08:39.603Z,1.14
2019-02-06T00:11:08.499Z,1.05
2019-02-06T00:13:37.000Z,1.04
2019-02-06T00:16:06.021Z,0.97
2019-02-06T00:18:34.788Z,0.91
2019-02-06T00:21:03.292Z,0.88
2019-02-06T00:23:31.741Z,0.82
2019-02-06T00:26:00.240Z,0.81
2019-02-06T00:28:29.063Z,0.78
2019-02-06T00:30:57.541Z,0.76
2019-02-06T00:33:25.993Z,0.70
2019-02-06T00:35:54.429Z,0.59
2019-02-06T00:38:22.878Z,0.49
2019-02-06T00:40:51.373Z,0.45
2019-02-06T00:43:19.899Z,0.42
2019-02-06T00:45:48.396Z,0.41
2019-02-06T00:48:16.850Z,0.41
2019-02-06T00:50:45.273Z,0.42
2019-02-06T00:53:13.723Z,0.40
2019-02-06T00:55:42.217Z,0.38
2019-02-06T00:58:10.744Z,0.36
2019-02-06T01:00:39.673Z,0.34
2019-02-06T01:03:08.571Z,0.39
2019-02-06T01:05:38.771Z,0.40
2019-02-06T01:08:07.234Z,0.39
2019-02-06T01:10:35.667Z,0.35
2019-02-06T01:13:04.248Z,0.33
2019-02-06T01:15:32.671Z,0.36
2019-02-06T01:18:01.196Z,0.36
2019-02-06T01:20:29.799Z,0.39
2019-02-06T01:22:58.291Z,0.33
2019-02-06T01:25:26.773Z,0.27
2019-02-06T01:27:55.228Z,0.22
2019-02-06T01:30:25.299Z,0.23
2019-02-06T01:32:53.737Z,0.22
2019-02-06T01:35:22.228Z,0.25
2019-02-06T01:37:50.749Z,0.22
2019-02-06T01:40:20.920Z,0.23
2019-02-06T01:42:49.383Z,0.16
2019-02-06T01:45:21.831Z,0.14
2019-02-06T01:47:50.318Z,0.14
2019-02-06T01:50:19.340Z,0.12
2019-02-06T01:52:47.897Z,0.14
2019-02-06T01:55:16.591Z,0.16
2019-02-06T01:57:45.012Z,0.18
2019-02-06T02:00:18.461Z,0.20
2019-02-06T02:02:46.955Z,0.22
2019-02-06T02:05:17.830Z,0.24
2019-02-06T02:07:47.231Z,0.42
2019-02-06T02:10:15.991Z,0.50
2019-02-06T02:12:44.871Z,0.55
2019-02-06T02:15:18.472Z,0.57
2019-02-06T02:17:47.201Z,0.61
2019-02-06T02:20:18.206Z,0.68
2019-02-06T02:22:47.031Z,0.73
2019-02-06T02:25:15.751Z,0.75
2019-02-06T02:27:44.455Z,0.81
2019-02-06T02:30:19.446Z,0.89
2019-02-06T02:32:48.568Z,0.93
2019-02-06T02:35:17.320Z,0.98
2019-02-06T02:37:46.003Z,0.94
2019-02-06T02:40:14.677Z,0.96
2019-02-06T02:42:43.381Z,1.05
2019-02-06T02:45:14.844Z,1.06
2019-02-06T02:47:43.942Z,1.10
2019-02-06T02:50:13.006Z,1.08
2019-02-06T02:52:41.782Z,1.10
2019-02-06T02:55:12.052Z,1.07
2019-02-06T02:57:40.862Z,1.13
2019-02-06T03:00:19.727Z,1.14
2019-02-06T03:02:52.751Z,1.14
2019-02-06T03:05:23.333Z,1.14
2019-02-06T03:07:51.912Z,1.11
2019-02-06T03:10:20.586Z,1.13
2019-02-06T03:12:49.362Z,1.13
2019-02-06T03:15:18.128Z,1.11
2019-02-06T03:17:46.670Z,1.14
2019-02-06T03:20:15.329Z,1.13
2019-02-06T03:22:44.042Z,1.09
2019-02-06T03:25:14.279Z,1.11
2019-02-06T03:27:43.033Z,1.10
2019-02-06T03:30:14.669Z,1.03
2019-02-06T03:32:43.483Z,1.00
2019-02-06T03:35:12.308Z,1.01
2019-02-06T03:37:41.004Z,0.94
2019-02-06T03:40:18.118Z,0.93
2019-02-06T03:42:46.883Z,0.94
2019-02-06T03:45:16.136Z,0.96
2019-02-06T03:47:44.955Z,0.98
2019-02-06T03:50:18.615Z,0.99
2019-02-06T03:52:47.340Z,1.03
2019-02-06T03:55:16.806Z,1.03
2019-02-06T03:57:45.545Z,0.98
2019-02-06T04:00:18.928Z,1.00
2019-02-06T04:02:47.611Z,1.01
2019-02-06T04:05:16.336Z,1.07
2019-02-06T04:07:45.082Z,1.13
2019-02-06T04:10:20.627Z,1.10
2019-02-06T04:12:49.321Z,1.15
2019-02-06T04:15:18.027Z,1.27
2019-02-06T04:17:46.662Z,1.27
2019-02-06T04:20:16.367Z,1.28
2019-02-06T04:22:45.112Z,1.28
2019-02-06T04:25:15.034Z,1.27
2019-02-06T04:27:43.928Z,1.31
2019-02-06T04:30:18.089Z,1.37
2019-02-06T04:32:46.924Z,1.38
2019-02-06T04:35:16.169Z,1.32
2019-02-06T04:37:44.696Z,1.32
2019-02-06T04:40:20.657Z,1.30
2019-02-06T04:42:49.505Z,1.35
2019-02-06T04:45:19.194Z,1.36
2019-02-06T04:47:47.787Z,1.39
2019-02-06T04:50:17.582Z,1.47
2019-02-06T04:52:46.433Z,1.51
2019-02-06T04:55:20.707Z,1.51
2019-02-06T04:57:49.444Z,1.53
2019-02-06T05:00:20.822Z,1.55
2019-02-06T05:02:49.352Z,1.51
2019-02-06T05:05:17.960Z,1.45
2019-02-06T05:07:46.409Z,1.43
2019-02-06T05:10:15.185Z,1.46
2019-02-06T05:12:44.197Z,1.41
2019-02-06T05:15:14.267Z,1.39
2019-02-06T05:17:42.798Z,1.29
2019-02-06T05:20:32.650Z,1.25
2019-02-06T05:23:01.110Z,1.20
2019-02-06T05:25:29.893Z,1.17
2019-02-06T05:27:58.422Z,1.13
2019-02-06T05:30:26.859Z,1.15
2019-02-06T05:32:55.323Z,1.19
2019-02-06T05:35:23.927Z,1.24
2019-02-06T05:37:52.460Z,1.25
2019-02-06T05:40:20.970Z,1.21
2019-02-06T05:42:52.637Z,1.26
2019-02-06T05:45:19.720Z,1.27
2019-02-06T05:47:48.184Z,1.30
2019-02-06T05:50:19.740Z,1.37
2019-02-06T05:52:48.270Z,1.38
2019-02-06T05:55:17.843Z,1.36
2019-02-06T05:57:46.995Z,1.31
2019-02-06T06:00:25.961Z,1.28
2019-02-06T06:02:54.528Z,1.22
2019-02-06T06:05:23.035Z,1.15
2019-02-06T06:07:51.551Z,1.20
2019-02-06T06:10:20.184Z,1.18
2019-02-06T06:12:48.618Z,1.22
2019-02-06T06:15:20.001Z,1.22
2019-02-06T06:17:48.427Z,1.32
2019-02-06T06:20:19.234Z,1.34
2019-02-06T06:22:47.805Z,1.36
2019-02-06T06:25:18.158Z,1.34
2019-02-06T06:27:46.994Z,1.38
2019-02-06T06:30:20.347Z,1.42
2019-02-06T06:32:48.984Z,1.35
2019-02-06T06:35:17.480Z,1.23
2019-02-06T06:37:57.771Z,1.13
2019-02-06T06:40:18.911Z,1.05
2019-02-06T06:42:47.785Z,1.01
2019-02-06T06:45:21.582Z,1.01
2019-02-06T06:47:50.090Z,1.02
2019-02-06T06:50:21.158Z,0.99
2019-02-06T06:52:49.665Z,0.98
2019-02-06T06:55:18.333Z,0.94
2019-02-06T06:57:47.139Z,0.96
2019-02-06T07:00:18.408Z,0.96
2019-02-06T07:02:46.925Z,0.95
2019-02-06T07:05:16.526Z,0.95
2019-02-06T07:07:45.127Z,0.93
2019-02-06T07:10:16.904Z,0.92
2019-02-06T07:12:45.399Z,0.94
2019-02-06T07:15:25.097Z,0.93
2019-02-06T07:17:53.595Z,0.92
2019-02-06T07:20:22.133Z,0.91
2019-02-06T07:22:50.635Z,0.93
2019-02-06T07:25:20.013Z,0.99
2019-02-06T07:27:48.581Z,1.04
2019-02-06T07:30:28.834Z,1.09
2019-02-06T07:32:57.407Z,1.12
2019-02-06T07:35:25.933Z,1.17
2019-02-06T07:37:54.442Z,1.19
2019-02-06T07:40:22.974Z,1.23
2019-02-06T07:42:51.645Z,1.26
2019-02-06T07:45:21.083Z,1.29
2019-02-06T07:47:49.848Z,1.32
2019-02-06T07:50:26.830Z,1.32
2019-02-06T07:52:55.628Z,1.37
2019-02-06T07:55:24.129Z,1.40
2019-02-06T07:57:52.727Z,1.42
2019-02-06T08:00:21.235Z,1.45
2019-02-06T08:02:49.761Z,1.49
2019-02-06T08:05:20.151Z,1.53
2019-02-06T08:07:48.945Z,1.55
2019-02-06T08:10:32.505Z,1.57
2019-02-06T08:13:01.708Z,1.60
2019-02-06T08:15:30.384Z,1.62
2019-02-06T08:17:58.912Z,1.64
2019-02-06T08:20:27.480Z,1.69
2019-02-06T08:22:56.285Z,1.77
2019-02-06T08:25:25.361Z,1.86
2019-02-06T08:27:53.959Z,1.97
2019-02-06T08:30:24.843Z,2.07
2019-02-06T08:32:53.554Z,2.15
2019-02-06T08:35:22.119Z,2.24
2019-02-06T08:37:51.294Z,2.29
2019-02-06T08:40:22.378Z,2.32
2019-02-06T08:42:50.915Z,2.34
2019-02-06T08:45:19.586Z,2.38
2019-02-06T08:47:48.119Z,2.47
2019-02-06T08:50:18.900Z,2.61
2019-02-06T08:52:47.879Z,2.75
2019-02-06T08:55:19.020Z,2.87
2019-02-06T08:57:47.619Z,2.99
2019-02-06T09:00:19.260Z,3.14
2019-02-06T09:02:47.794Z,3.28
2019-02-06T09:05:16.367Z,3.28
2019-02-06T09:07:45.198Z,3.23
2019-02-06T09:10:16.809Z,3.30
2019-02-06T09:12:45.343Z,3.35
2019-02-06T09:15:14.716Z,3.38
2019-02-06T09:17:43.250Z,3.35
2019-02-06T09:20:14.905Z,3.35
2019-02-06T09:22:43.704Z,3.30
2019-02-06T09:25:15.484Z,3.31
2019-02-06T09:27:43.991Z,3.25
2019-02-06T09:30:15.960Z,3.25
2019-02-06T09:32:44.431Z,3.22
2019-02-06T09:35:13.013Z,3.22
2019-02-06T09:37:41.796Z,3.16
2019-02-06T09:40:13.666Z,3.17
2019-02-06T09:42:42.105Z,3.13
2019-02-06T09:45:12.611Z,3.15
2019-02-06T09:47:41.108Z,3.15
2019-02-06T09:50:12.777Z,3.18
2019-02-06T09:52:41.656Z,3.26
2019-02-06T09:55:10.239Z,3.30
2019-02-06T09:57:38.668Z,3.39
2019-02-06T10:00:13.494Z,3.39
2019-02-06T10:02:42.001Z,3.45
2019-02-06T10:05:11.198Z,3.64
2019-02-06T10:07:40.008Z,3.64
2019-02-06T10:10:14.261Z,3.70
2019-02-06T10:12:42.701Z,3.70
2019-02-06T10:15:23.224Z,3.88
2019-02-06T10:17:51.793Z,3.88
2019-02-06T10:20:23.377Z,4.10
2019-02-06T10:22:51.813Z,4.26
2019-02-06T10:25:20.517Z,4.36
2019-02-06T10:27:48.948Z,4.46
2019-02-06T10:30:29.636Z,4.46
2019-02-06T10:32:58.517Z,4.68
2019-02-06T10:35:27.048Z,4.68
2019-02-06T10:37:55.564Z,4.67
2019-02-06T10:40:24.089Z,4.67
2019-02-06T10:42:52.528Z,4.74
2019-02-06T10:45:21.457Z,4.72
2019-02-06T10:47:50.168Z,4.68
2019-02-06T10:50:21.340Z,4.68
2019-02-06T10:52:49.843Z,4.65
2019-02-06T10:55:18.644Z,4.66
2019-02-06T10:57:47.215Z,4.66
2019-02-06T11:00:21.400Z,4.81
2019-02-06T11:02:49.914Z,4.89
2019-02-06T11:05:18.512Z,4.89
2019-02-06T11:07:46.945Z,4.97
2019-02-06T11:10:18.518Z,4.97
2019-02-06T11:12:47.026Z,5.02
2019-02-06T11:15:16.290Z,5.07
2019-02-06T11:17:44.790Z,5.13
2019-02-06T11:20:19.196Z,5.19
2019-02-06T11:22:47.700Z,5.19
2019-02-06T11:25:16.941Z,5.19
2019-02-06T11:27:45.525Z,5.31
2019-02-06T11:30:22.301Z,5.43
2019-02-06T11:32:51.314Z,5.62
2019-02-06T11:35:19.918Z,5.78
2019-02-06T11:37:48.445Z,5.86
2019-02-06T11:40:24.742Z,5.77
2019-02-06T11:42:54.190Z,5.78
2019-02-06T11:45:33.068Z,5.97
2019-02-06T11:48:01.526Z,6.09
2019-02-06T11:50:32.547Z,6.12
2019-02-06T11:53:01.076Z,6.16
2019-02-06T11:55:31.457Z,6.25
2019-02-06T11:57:59.992Z,6.36
2019-02-06T12:00:31.220Z,6.47
2019-02-06T12:02:59.686Z,6.47
2019-02-06T12:05:28.174Z,6.27
2019-02-06T12:07:56.701Z,6.23
2019-02-06T12:10:25.209Z,6.27
2019-02-06T12:12:53.865Z,6.19
2019-02-06T12:15:22.821Z,6.13
2019-02-06T12:17:51.279Z,6.17
2019-02-06T12:20:24.063Z,6.21
2019-02-06T12:22:52.669Z,6.22
2019-02-06T12:25:21.176Z,6.23
2019-02-06T12:27:51.169Z,6.27
2019-02-06T12:30:31.040Z,6.36
2019-02-06T12:32:59.552Z,6.45
2019-02-06T12:35:28.065Z,6.42
2019-02-06T12:37:56.668Z,6.48
2019-02-06T12:40:25.541Z,6.56
2019-02-06T12:42:54.070Z,6.60
2019-02-06T12:45:23.853Z,6.60
2019-02-06T12:47:53.535Z,6.74
2019-02-06T12:50:23.402Z,6.86
2019-02-06T12:52:51.935Z,6.89
2019-02-06T12:55:35.075Z,7.00
2019-02-06T12:58:03.667Z,7.07
2019-02-06T13:00:34.824Z,7.00
2019-02-06T13:03:03.360Z,7.03
2019-02-06T13:05:31.967Z,7.04
2019-02-06T13:08:00.573Z,7.08
2019-02-06T13:10:34.088Z,7.11
2019-02-06T13:12:59.339Z,7.13
2019-02-06T13:15:27.771Z,7.15
2019-02-06T13:17:56.570Z,7.08
2019-02-06T13:20:27.244Z,7.00
2019-02-06T13:22:55.947Z,6.92
2019-02-06T13:25:24.477Z,6.87
2019-02-06T13:27:53.054Z,6.77
2019-02-06T13:30:30.730Z,6.70
2019-02-06T13:32:59.236Z,6.64
2019-02-06T13:35:27.834Z,6.56
2019-02-06T13:37:56.345Z,6.48
2019-02-06T13:40:26.946Z,6.43
2019-02-06T13:42:55.718Z,6.34
2019-02-06T13:45:27.086Z,6.25
2019-02-06T13:47:55.757Z,6.10
2019-02-06T13:50:24.855Z,5.97
2019-02-06T13:52:53.359Z,5.77
2019-02-06T13:55:21.892Z,5.65
2019-02-06T13:57:50.392Z,5.50
2019-02-06T14:00:24.538Z,5.40
2019-02-06T14:02:53.109Z,5.30
2019-02-06T14:05:24.615Z,5.21
2019-02-06T14:07:54.597Z,5.15
2019-02-06T14:10:28.154Z,5.10
2019-02-06T14:12:56.725Z,5.08
2019-02-06T14:15:30.973Z,5.05
2019-02-06T14:17:59.478Z,5.06
2019-02-06T14:20:28.964Z,5.08
2019-02-06T14:23:00.513Z,5.11
2019-02-06T14:25:32.075Z,5.14
2019-02-06T14:28:15.980Z,5.16
2019-02-06T14:30:50.226Z,5.15
2019-02-06T14:33:30.463Z,5.16
2019-02-06T14:36:23.388Z,5.17
2019-02-06T14:39:00.632Z,5.17
2019-02-06T14:41:35.188Z,5.17
2019-02-06T14:44:09.709Z,5.13
2019-02-06T14:47:05.301Z,5.14
2019-02-06T14:49:48.620Z,5.14
2019-02-06T14:52:25.634Z,5.03
2019-02-06T14:54:57.240Z,5.06
2019-02-06T14:57:57.470Z,5.06
2019-02-06T15:00:59.871Z,5.05
2019-02-06T15:03:26.394Z,5.03
2019-02-06T15:06:10.319Z,4.97
2019-02-06T15:09:16.165Z,4.94
2019-02-06T15:11:56.777Z,4.89
2019-02-06T15:14:48.190Z,4.83
2019-02-06T15:17:20.008Z,4.78
2019-02-06T15:19:55.188Z,4.74
2019-02-06T15:22:38.941Z,4.71
2019-02-06T15:25:16.220Z,4.69
2019-02-06T15:27:47.859Z,4.59
2019-02-06T15:30:25.574Z,4.67
2019-02-06T15:33:05.994Z,4.64
2019-02-06T15:35:43.829Z,4.62
2019-02-06T15:38:21.079Z,4.62
2019-02-06T15:40:55.497Z,4.59
2019-02-06T15:43:39.110Z,4.55
2019-02-06T15:46:33.723Z,4.55
2019-02-06T15:49:14.387Z,4.49
2019-02-06T15:52:06.822Z,4.37
2019-02-06T15:54:53.027Z,4.43
2019-02-06T15:57:33.888Z,4.43
2019-02-06T16:00:23.716Z,4.29
2019-02-06T16:03:19.603Z,4.32
2019-02-06T16:06:04.121Z,4.32
2019-02-06T16:08:43.806Z,4.37
2019-02-06T16:11:18.191Z,4.33
2019-02-06T16:13:52.762Z,4.33
2019-02-06T16:16:27.377Z,4.30
2019-02-06T16:19:14.207Z,4.34
2019-02-06T16:21:53.371Z,4.32
2019-02-06T16:24:32.601Z,4.28
2019-02-06T16:27:12.839Z,4.28
2019-02-06T16:30:03.891Z,4.66
2019-02-06T16:33:04.259Z,4.66
2019-02-06T16:35:38.794Z,4.89
2019-02-06T16:38:28.518Z,4.87
2019-02-06T16:41:21.781Z,4.87
2019-02-06T16:44:10.223Z,4.96
2019-02-06T16:47:15.290Z,4.92
2019-02-06T16:50:11.039Z,5.10
2019-02-06T16:53:00.281Z,5.10
2019-02-06T16:55:46.805Z,5.08
2019-02-06T16:58:35.915Z,5.11
2019-02-06T17:01:21.881Z,5.01
2019-02-06T17:03:56.216Z,5.03
2019-02-06T17:06:36.737Z,5.12
2019-02-06T17:09:14.391Z,5.12
2019-02-06T17:11:51.921Z,5.14
2019-02-06T17:14:26.486Z,5.06
2019-02-06T17:17:07.136Z,5.06
2019-02-06T17:19:50.845Z,5.07
2019-02-06T17:22:22.533Z,5.12
2019-02-06T17:25:00.448Z,5.07
2019-02-06T17:27:50.249Z,5.03
2019-02-06T17:30:47.958Z,5.01
2019-02-06T17:33:45.405Z,5.01
2019-02-06T17:36:49.246Z,5.03
2019-02-06T17:39:40.538Z,5.04
2019-02-06T17:42:15.895Z,5.06
2019-02-06T17:45:05.151Z,5.03
2019-02-06T17:47:45.483Z,5.02
2019-02-06T17:50:20.601Z,4.92
2019-02-06T17:53:08.945Z,5.00
2019-02-06T17:55:37.481Z,5.00
2019-02-06T17:58:06.650Z,5.00
2019-02-06T18:00:50.236Z,4.96
2019-02-06T18:03:18.884Z,4.92
2019-02-06T18:05:48.271Z,4.97
2019-02-06T18:08:16.780Z,4.96
2019-02-06T18:10:45.360Z,4.96
2019-02-06T18:13:13.824Z,4.92
2019-02-06T18:15:42.264Z,4.93
2019-02-06T18:18:10.720Z,4.91
2019-02-06T18:20:39.156Z,4.91
2019-02-06T18:23:07.687Z,4.93
2019-02-06T18:25:36.194Z,5.00
2019-02-06T18:28:04.893Z,5.00
2019-02-06T18:30:33.550Z,5.14
2019-02-06T18:33:02.317Z,5.12
2019-02-06T18:35:30.989Z,5.04
2019-02-06T18:37:59.686Z,5.04
2019-02-06T18:40:28.532Z,5.05
2019-02-06T18:42:57.700Z,4.95
2019-02-06T18:45:27.893Z,4.95
2019-02-06T18:48:05.151Z,4.96
2019-02-06T18:50:34.860Z,4.93
2019-02-06T18:53:04.423Z,4.94
2019-02-06T18:55:33.308Z,4.94
2019-02-06T18:58:01.837Z,4.95
2019-02-06T19:00:32.976Z,4.96
2019-02-06T19:03:04.723Z,4.95
2019-02-06T19:05:36.358Z,4.95
2019-02-06T19:08:05.286Z,4.91
2019-02-06T19:10:33.968Z,4.84
2019-02-06T19:13:02.496Z,4.84
2019-02-06T19:15:31.713Z,4.87
2019-02-06T19:18:00.257Z,4.87
2019-02-06T19:20:28.930Z,4.79
2019-02-06T19:22:57.695Z,4.74
2019-02-06T19:25:26.379Z,4.70
2019-02-06T19:27:56.340Z,4.70
2019-02-06T19:30:30.674Z,4.79
2019-02-06T19:32:59.587Z,4.75
2019-02-06T19:35:28.599Z,4.78
2019-02-06T19:37:57.302Z,4.77
2019-02-06T19:40:26.197Z,4.85
2019-02-06T19:43:01.954Z,4.85
2019-02-06T19:45:26.101Z,4.82
2019-02-06T19:47:55.443Z,4.78
2019-02-06T19:50:29.774Z,4.78
2019-02-06T19:52:58.795Z,4.71
2019-02-06T19:55:27.404Z,4.73
2019-02-06T19:57:56.121Z,4.74
2019-02-06T20:00:32.664Z,4.75
2019-02-06T20:03:01.444Z,4.75
2019-02-06T20:05:30.144Z,4.76
2019-02-06T20:07:58.994Z,4.73
2019-02-06T20:10:36.466Z,4.73
2019-02-06T20:13:11.470Z,4.75
2019-02-06T20:15:36.280Z,4.75
2019-02-06T20:18:05.560Z,4.69
2019-02-06T20:20:34.710Z,4.57
2019-02-06T20:23:03.546Z,4.57
2019-02-06T20:25:32.368Z,4.55
2019-02-06T20:28:01.187Z,4.56
2019-02-06T20:30:31.635Z,4.56
2019-02-06T20:33:00.521Z,4.57
2019-02-06T20:35:30.272Z,4.47
2019-02-06T20:37:59.286Z,4.49
2019-02-06T20:40:33.615Z,4.49
2019-02-06T20:43:02.609Z,4.42
2019-02-06T20:45:31.873Z,4.42
2019-02-06T20:48:00.545Z,4.46
2019-02-06T20:50:34.777Z,4.41
2019-02-06T20:53:04.204Z,4.41
2019-02-06T20:55:32.838Z,4.37
2019-02-06T20:58:02.223Z,4.37
2019-02-06T21:00:41.783Z,4.38
2019-02-06T21:03:10.361Z,4.35
2019-02-06T21:05:39.189Z,4.26
2019-02-06T21:08:07.907Z,4.26
2019-02-06T21:10:37.210Z,4.26
2019-02-06T21:13:06.827Z,4.22
2019-02-06T21:15:35.601Z,4.18
2019-02-06T21:18:04.654Z,4.18
2019-02-06T21:20:33.361Z,4.10
2019-02-06T21:23:02.240Z,4.14
2019-02-06T21:25:30.842Z,4.14
2019-02-06T21:27:59.483Z,4.14
2019-02-06T21:30:31.122Z,4.10
2019-02-06T21:32:59.627Z,4.13
2019-02-06T21:35:28.230Z,4.13
2019-02-06T21:37:56.938Z,4.22
2019-02-06T21:40:30.544Z,4.22
2019-02-06T21:42:59.044Z,4.24
2019-02-06T21:45:27.619Z,4.24
2019-02-06T21:47:56.127Z,4.20
2019-02-06T21:50:25.332Z,4.20
2019-02-06T21:52:54.476Z,4.17
2019-02-06T21:55:24.333Z,4.15
2019-02-06T21:57:52.858Z,4.09
2019-02-06T22:00:26.651Z,4.08
2019-02-06T22:02:55.164Z,4.08
2019-02-06T22:05:23.762Z,4.04
2019-02-06T22:07:52.544Z,4.10
2019-02-06T22:10:22.346Z,4.17
2019-02-06T22:12:50.854Z,4.17
2019-02-06T22:15:25.123Z,4.10
2019-02-06T22:17:53.635Z,4.09
2019-02-06T22:20:22.160Z,4.09
2019-02-06T22:22:50.740Z,4.22
2019-02-06T22:25:19.290Z,4.18
2019-02-06T22:27:50.510Z,4.19
2019-02-06T22:30:23.209Z,4.14
2019-02-06T22:32:52.021Z,4.09
2019-02-06T22:35:21.034Z,4.09
2019-02-06T22:37:49.536Z,4.11
2019-02-06T22:40:19.840Z,4.01
2019-02-06T22:42:48.407Z,4.01
2019-02-06T22:45:18.811Z,4.04
2019-02-06T22:47:47.383Z,4.04
2019-02-06T22:50:18.381Z,3.94
2019-02-06T22:52:46.885Z,3.87
2019-02-06T22:55:15.881Z,3.77
2019-02-06T22:57:44.320Z,3.77
2019-02-06T23:00:39.887Z,3.79
2019-02-06T23:03:08.391Z,3.77
2019-02-06T23:05:36.929Z,3.75
2019-02-06T23:08:05.538Z,3.75
2019-02-06T23:10:36.720Z,3.76
2019-02-06T23:13:04.234Z,3.79
2019-02-06T23:15:32.977Z,3.84
2019-02-06T23:18:01.480Z,3.84
2019-02-06T23:20:30.016Z,3.87
2019-02-06T23:22:58.522Z,3.87
2019-02-06T23:25:26.987Z,3.87
2019-02-06T23:27:55.422Z,3.87
2019-02-06T23:30:23.929Z,3.89
2019-02-06T23:32:52.459Z,3.92
2019-02-06T23:35:20.898Z,3.95
2019-02-06T23:37:49.359Z,3.89
2019-02-06T23:40:17.939Z,3.89
2019-02-06T23:42:46.397Z,3.93
2019-02-06T23:45:14.970Z,3.92
2019-02-06T23:47:43.704Z,3.96
2019-02-06T23:50:16.540Z,4.04
2019-02-06T23:52:45.239Z,4.04
2019-02-06T23:55:14.114Z,4.10
2019-02-06T23:57:42.644Z,4.05
